createdAt,value
2023-04-28T00:00:57.145Z,191.36
2023-04-28T00:01:57.140Z,191.28
2023-04-28T00:02:57.323Z,189.63
2023-04-28T00:03:57.507Z,190.60
2023-04-28T00:04:57.161Z,191.43
2023-04-28T00:05:57.142Z,191.98
2023-04-28T00:06:57.105Z,191.28
2023-04-28T00:07:57.092Z,191.46
2023-04-28T00:08:57.093Z,191.21
2023-04-28T00:09:57.117Z,192.03
2023-04-28T00:10:57.071Z,191.54
2023-04-28T00:11:57.061Z,193.10
2023-04-28T00:12:57.057Z,191.09
2023-04-28T00:13:57.059Z,191.51
2023-04-28T00:14:57.041Z,190.53
2023-04-28T00:15:57.119Z,191.29
2023-04-28T00:16:57.150Z,189.91
2023-04-28T00:17:57.126Z,189.11
2023-04-28T00:18:57.039Z,191.22
2023-04-28T00:19:57.023Z,191.59
2023-04-28T00:20:57.011Z,189.37
2023-04-28T00:21:56.991Z,189.90
2023-04-28T00:22:56.994Z,189.55
2023-04-28T00:23:56.976Z,190.10
2023-04-28T00:24:56.969Z,189.62
2023-04-28T00:25:56.965Z,190.35
2023-04-28T00:26:56.976Z,188.81
2023-04-28T00:27:56.968Z,190.10
2023-04-28T00:28:56.963Z,188.92
2023-04-28T00:29:56.956Z,189.80
2023-04-28T00:30:56.940Z,190.88
2023-04-28T00:31:57.024Z,190.49
2023-04-28T00:32:56.944Z,188.31
2023-04-28T00:33:56.920Z,190.12
2023-04-28T00:34:56.915Z,188.70
2023-04-28T00:35:56.907Z,191.01
2023-04-28T00:36:56.899Z,189.22
2023-04-28T00:37:56.895Z,190.02
2023-04-28T00:38:56.875Z,190.48
2023-04-28T00:39:56.861Z,188.47
2023-04-28T00:40:56.892Z,187.18
2023-04-28T00:41:56.867Z,187.21
2023-04-28T00:42:56.935Z,187.70
2023-04-28T00:43:56.828Z,184.73
2023-04-28T00:44:56.839Z,187.51
2023-04-28T00:45:56.926Z,188.76
2023-04-28T00:46:56.835Z,190.93
2023-04-28T00:47:56.849Z,189.81
2023-04-28T00:48:56.811Z,188.87
2023-04-28T00:49:56.804Z,192.65
2023-04-28T00:50:56.802Z,191.01
2023-04-28T00:51:56.791Z,190.06
2023-04-28T00:52:56.796Z,188.75
2023-04-28T00:53:56.816Z,190.49
2023-04-28T00:54:56.758Z,190.91
2023-04-28T00:55:56.766Z,189.50
2023-04-28T00:56:56.756Z,188.49
2023-04-28T00:57:56.741Z,189.24
2023-04-28T00:58:56.733Z,190.38
2023-04-28T00:59:56.743Z,189.89
2023-04-28T01:00:56.830Z,192.29
2023-04-28T01:01:56.729Z,192.34
2023-04-28T01:02:56.926Z,191.97
2023-04-28T01:03:56.883Z,190.29
2023-04-28T01:04:56.786Z,189.10
2023-04-28T01:05:56.828Z,189.65
2023-04-28T01:06:56.872Z,190.29
2023-04-28T01:07:56.893Z,188.06
2023-04-28T01:08:56.903Z,186.74
2023-04-28T01:09:56.913Z,187.87
2023-04-28T01:10:56.947Z,186.86
2023-04-28T01:11:56.916Z,188.50
2023-04-28T01:12:56.938Z,190.90
2023-04-28T01:13:56.949Z,192.70
2023-04-28T01:14:56.938Z,193.03
2023-04-28T01:15:56.971Z,194.18
2023-04-28T01:16:57.068Z,191.35
2023-04-28T01:17:57.013Z,193.15
2023-04-28T01:18:56.959Z,190.77
2023-04-28T01:19:56.950Z,190.31
2023-04-28T01:20:56.939Z,192.61
2023-04-28T01:21:56.948Z,192.02
2023-04-28T01:22:56.926Z,190.00
2023-04-28T01:23:56.957Z,188.25
2023-04-28T01:24:56.927Z,189.42
2023-04-28T01:25:56.936Z,186.98
2023-04-28T01:26:56.922Z,187.61
2023-04-28T01:27:56.927Z,185.55
2023-04-28T01:28:56.922Z,188.00
2023-04-28T01:29:56.908Z,189.53
2023-04-28T01:30:56.899Z,186.99
2023-04-28T01:31:57.035Z,183.16
2023-04-28T01:32:56.890Z,183.45
2023-04-28T01:33:56.872Z,186.91
2023-04-28T01:34:56.875Z,187.68
2023-04-28T01:35:56.870Z,186.69
2023-04-28T01:36:56.860Z,187.35
2023-04-28T01:37:56.864Z,185.56
2023-04-28T01:38:56.891Z,185.86
2023-04-28T01:39:56.878Z,187.04
2023-04-28T01:40:56.904Z,186.21
2023-04-28T01:41:56.895Z,185.74
2023-04-28T01:42:56.901Z,188.55
2023-04-28T01:43:56.892Z,188.55
2023-04-28T01:44:56.886Z,188.78
2023-04-28T01:45:57.000Z,188.18
2023-04-28T01:46:56.901Z,190.34
2023-04-28T01:47:56.939Z,187.51
2023-04-28T01:48:56.915Z,188.74
2023-04-28T01:49:56.911Z,191.81
2023-04-28T01:50:56.900Z,190.78
2023-04-28T01:51:56.900Z,189.90
2023-04-28T01:52:56.873Z,190.69
2023-04-28T01:53:56.902Z,192.96
2023-04-28T01:54:56.874Z,191.04
2023-04-28T01:55:56.874Z,192.50
2023-04-28T01:56:56.890Z,193.41
2023-04-28T01:57:56.863Z,191.80
2023-04-28T01:58:56.876Z,190.80
2023-04-28T01:59:56.857Z,191.31
2023-04-28T02:00:56.860Z,191.34
2023-04-28T02:01:56.986Z,194.44
2023-04-28T02:02:56.925Z,196.64
2023-04-28T02:03:57.147Z,198.10
2023-04-28T02:04:56.984Z,198.63
2023-04-28T02:05:56.840Z,196.68
2023-04-28T02:06:56.854Z,193.93
2023-04-28T02:07:56.844Z,193.44
2023-04-28T02:08:56.826Z,193.12
2023-04-28T02:09:56.839Z,190.42
2023-04-28T02:10:56.819Z,189.52
2023-04-28T02:11:56.837Z,187.82
2023-04-28T02:12:56.828Z,185.89
2023-04-28T02:13:56.829Z,189.76
2023-04-28T02:14:56.803Z,189.69
2023-04-28T02:15:56.866Z,190.70
2023-04-28T02:16:56.800Z,188.96
2023-04-28T02:17:56.838Z,190.30
2023-04-28T02:18:56.809Z,190.98
2023-04-28T02:19:56.835Z,190.53
2023-04-28T02:20:56.792Z,189.43
2023-04-28T02:21:56.804Z,188.33
2023-04-28T02:22:56.775Z,187.53
2023-04-28T02:23:56.772Z,187.63
2023-04-28T02:24:56.786Z,188.04
2023-04-28T02:25:56.767Z,191.58
2023-04-28T02:26:56.765Z,190.99
2023-04-28T02:27:56.771Z,192.12
2023-04-28T02:28:56.757Z,192.90
2023-04-28T02:29:56.772Z,193.75
2023-04-28T02:30:56.762Z,190.43
2023-04-28T02:31:56.869Z,189.48
2023-04-28T02:32:56.899Z,190.32
2023-04-28T02:33:56.796Z,191.79
2023-04-28T02:34:56.796Z,192.82
2023-04-28T02:35:56.790Z,193.12
2023-04-28T02:36:56.779Z,191.45
2023-04-28T02:37:56.785Z,193.00
2023-04-28T02:38:56.774Z,192.59
2023-04-28T02:39:56.785Z,193.05
2023-04-28T02:40:56.754Z,193.65
2023-04-28T02:41:56.839Z,193.29
2023-04-28T02:42:56.755Z,192.30
2023-04-28T02:43:56.772Z,192.42
2023-04-28T02:44:56.784Z,192.44
2023-04-28T02:45:56.753Z,193.28
2023-04-28T02:46:56.924Z,192.43
2023-04-28T02:47:56.772Z,192.00
2023-04-28T02:48:56.749Z,192.12
2023-04-28T02:49:56.742Z,192.45
2023-04-28T02:50:56.736Z,192.20
2023-04-28T02:51:56.746Z,191.92
2023-04-28T02:52:56.750Z,194.77
2023-04-28T02:53:56.746Z,193.66
2023-04-28T02:54:56.739Z,193.10
2023-04-28T02:55:56.754Z,193.96
2023-04-28T02:56:56.736Z,192.89
2023-04-28T02:57:56.726Z,193.10
2023-04-28T02:58:56.756Z,193.10
2023-04-28T02:59:56.730Z,192.08
2023-04-28T03:00:56.742Z,192.17
2023-04-28T03:01:56.712Z,191.26
2023-04-28T03:02:56.821Z,193.08
2023-04-28T03:03:56.911Z,193.21
2023-04-28T03:04:56.804Z,192.15
2023-04-28T03:05:56.713Z,194.10
2023-04-28T03:06:56.766Z,195.16
2023-04-28T03:07:56.690Z,195.04
2023-04-28T03:08:56.700Z,194.93
2023-04-28T03:09:56.700Z,196.21
2023-04-28T03:10:56.713Z,195.29
2023-04-28T03:11:56.670Z,193.41
2023-04-28T03:12:56.683Z,194.06
2023-04-28T03:13:56.674Z,194.18
2023-04-28T03:14:56.678Z,195.55
2023-04-28T03:15:56.696Z,194.68
2023-04-28T03:16:56.654Z,193.98
2023-04-28T03:17:56.702Z,195.00
2023-04-28T03:18:56.649Z,193.83
2023-04-28T03:19:56.653Z,193.53
2023-04-28T03:20:56.637Z,194.43
2023-04-28T03:21:56.641Z,194.70
2023-04-28T03:22:56.647Z,194.89
2023-04-28T03:23:56.628Z,195.09
2023-04-28T03:24:56.635Z,192.94
2023-04-28T03:25:56.646Z,195.15
2023-04-28T03:26:56.644Z,195.98
2023-04-28T03:27:56.635Z,197.03
2023-04-28T03:28:56.617Z,195.00
2023-04-28T03:29:56.603Z,197.80
2023-04-28T03:30:56.596Z,198.82
2023-04-28T03:31:56.721Z,198.61
2023-04-28T03:32:56.613Z,198.37
2023-04-28T03:33:56.595Z,196.16
2023-04-28T03:34:56.607Z,196.37
2023-04-28T03:35:56.618Z,197.09
2023-04-28T03:36:56.595Z,196.09
2023-04-28T03:37:56.565Z,195.88
2023-04-28T03:38:56.587Z,195.26
2023-04-28T03:39:56.576Z,197.23
2023-04-28T03:40:56.580Z,195.78
2023-04-28T03:41:56.565Z,197.36
2023-04-28T03:42:56.547Z,196.67
2023-04-28T03:43:56.550Z,196.92
2023-04-28T03:44:56.540Z,196.30
2023-04-28T03:45:56.614Z,196.54
2023-04-28T03:46:56.537Z,196.21
2023-04-28T03:47:56.620Z,196.87
2023-04-28T03:48:56.540Z,197.98
2023-04-28T03:49:56.521Z,199.27
2023-04-28T03:50:56.520Z,197.75
2023-04-28T03:51:56.529Z,198.30
2023-04-28T03:52:56.520Z,196.70
2023-04-28T03:53:56.514Z,198.85
2023-04-28T03:54:56.531Z,196.35
2023-04-28T03:55:56.523Z,197.64
2023-04-28T03:56:56.523Z,198.69
2023-04-28T03:57:56.502Z,198.41
2023-04-28T03:58:56.507Z,199.19
2023-04-28T03:59:56.494Z,197.58
2023-04-28T04:00:56.492Z,199.46
2023-04-28T04:01:56.497Z,198.51
2023-04-28T04:02:56.563Z,198.29
2023-04-28T04:03:56.765Z,197.92
2023-04-28T04:04:56.644Z,199.02
2023-04-28T04:05:56.482Z,198.28
2023-04-28T04:06:56.483Z,196.85
2023-04-28T04:07:56.467Z,198.14
2023-04-28T04:08:56.472Z,196.12
2023-04-28T04:09:56.469Z,199.28
2023-04-28T04:10:56.450Z,198.26
2023-04-28T04:11:56.467Z,198.75
2023-04-28T04:12:56.447Z,199.39
2023-04-28T04:13:56.453Z,199.90
2023-04-28T04:14:56.448Z,200.09
2023-04-28T04:15:56.470Z,200.48
2023-04-28T04:16:56.436Z,200.41
2023-04-28T04:17:56.479Z,199.86
2023-04-28T04:18:56.452Z,201.20
2023-04-28T04:19:56.488Z,201.04
2023-04-28T04:20:56.485Z,201.99
2023-04-28T04:21:56.508Z,201.56
2023-04-28T04:22:56.519Z,201.20
2023-04-28T04:23:56.528Z,202.80
2023-04-28T04:24:56.548Z,201.94
2023-04-28T04:25:56.529Z,202.37
2023-04-28T04:26:56.550Z,202.57
2023-04-28T04:27:56.539Z,202.54
2023-04-28T04:28:56.546Z,200.90
2023-04-28T04:29:56.521Z,200.77
2023-04-28T04:30:56.548Z,202.10
2023-04-28T04:31:56.561Z,202.39
2023-04-28T04:32:56.554Z,202.40
2023-04-28T04:33:56.533Z,202.95
2023-04-28T04:34:56.539Z,203.03
2023-04-28T04:35:56.525Z,202.68
2023-04-28T04:36:56.556Z,202.00
2023-04-28T04:37:56.511Z,201.14
2023-04-28T04:38:56.547Z,201.09
2023-04-28T04:39:56.521Z,200.48
2023-04-28T04:40:56.502Z,199.14
2023-04-28T04:41:56.494Z,200.23
2023-04-28T04:42:56.512Z,200.41
2023-04-28T04:43:56.489Z,200.35
2023-04-28T04:44:56.487Z,200.32
2023-04-28T04:45:56.488Z,201.03
2023-04-28T04:46:56.560Z,198.70
2023-04-28T04:47:56.541Z,198.64
2023-04-28T04:48:56.474Z,200.33
2023-04-28T04:49:56.493Z,201.14
2023-04-28T04:50:56.476Z,200.45
2023-04-28T04:51:56.470Z,202.57
2023-04-28T04:52:56.486Z,202.08
2023-04-28T04:53:56.464Z,202.91
2023-04-28T04:54:56.458Z,201.59
2023-04-28T04:55:56.471Z,203.06
2023-04-28T04:56:56.474Z,201.64
2023-04-28T04:57:56.462Z,203.72
2023-04-28T04:58:56.469Z,203.94
2023-04-28T04:59:56.456Z,203.33
2023-04-28T05:00:56.458Z,204.20
2023-04-28T05:01:56.492Z,204.75
2023-04-28T05:02:56.516Z,204.46
2023-04-28T05:03:56.624Z,203.25
2023-04-28T05:05:07.986Z,204.98
2023-04-28T05:05:57.478Z,205.08
2023-04-28T05:06:56.471Z,205.16
2023-04-28T05:07:56.479Z,205.51
2023-04-28T05:08:56.465Z,205.80
2023-04-28T05:09:56.448Z,207.61
2023-04-28T05:10:56.448Z,205.63
2023-04-28T05:11:56.425Z,205.85
2023-04-28T05:12:56.414Z,206.36
2023-04-28T05:13:56.432Z,205.51
2023-04-28T05:14:56.413Z,206.17
2023-04-28T05:15:56.409Z,206.09
2023-04-28T05:16:56.456Z,206.22
2023-04-28T05:17:56.384Z,206.42
2023-04-28T05:18:56.376Z,207.01
2023-04-28T05:19:56.369Z,205.30
2023-04-28T05:20:56.386Z,206.69
2023-04-28T05:21:56.364Z,206.73
2023-04-28T05:22:56.344Z,207.64
2023-04-28T05:23:56.352Z,206.67
2023-04-28T05:24:56.354Z,207.66
2023-04-28T05:25:56.426Z,207.12
2023-04-28T05:26:56.373Z,206.04
2023-04-28T05:27:56.460Z,209.15
2023-04-28T05:28:56.373Z,211.59
2023-04-28T05:29:56.362Z,210.50
2023-04-28T05:30:56.368Z,206.39
2023-04-28T05:31:56.391Z,204.38
2023-04-28T05:32:56.404Z,205.94
2023-04-28T05:33:56.362Z,204.56
2023-04-28T05:34:56.382Z,205.81
2023-04-28T05:35:56.403Z,208.90
2023-04-28T05:36:56.401Z,207.81
2023-04-28T05:37:56.420Z,207.47
2023-04-28T05:38:56.428Z,211.97
2023-04-28T05:39:56.428Z,215.05
2023-04-28T05:40:56.447Z,206.92
2023-04-28T05:41:56.471Z,219.45
2023-04-28T05:42:56.454Z,211.92
2023-04-28T05:43:56.453Z,208.94
2023-04-28T05:44:56.442Z,215.09
2023-04-28T05:45:56.516Z,217.04
2023-04-28T05:46:56.571Z,217.61
2023-04-28T05:47:56.491Z,206.84
2023-04-28T05:48:56.451Z,186.42
2023-04-28T05:49:56.423Z,208.16
2023-04-28T05:50:56.434Z,225.71
2023-04-28T05:51:56.460Z,272.19
2023-04-28T05:52:56.487Z,272.52
2023-04-28T05:53:56.530Z,273.60
2023-04-28T05:54:56.600Z,352.28
2023-04-28T05:55:56.650Z,278.25
2023-04-28T05:56:56.713Z,256.04
2023-04-28T05:57:56.769Z,253.42
2023-04-28T05:58:56.820Z,273.55
2023-04-28T05:59:56.865Z,258.31
2023-04-28T06:00:56.893Z,229.07
2023-04-28T06:01:56.954Z,209.47
2023-04-28T06:02:57.091Z,217.41
2023-04-28T06:03:57.265Z,216.75
2023-04-28T06:04:57.280Z,212.80
2023-04-28T06:05:57.262Z,239.58
2023-04-28T06:06:57.434Z,269.23
2023-04-28T06:07:57.192Z,266.58
2023-04-28T06:08:57.234Z,249.22
2023-04-28T06:09:57.278Z,247.31
2023-04-28T06:10:57.316Z,301.39
2023-04-28T06:11:57.350Z,323.16
2023-04-28T06:12:57.382Z,277.08
2023-04-28T06:13:57.391Z,265.12
2023-04-28T06:14:57.435Z,235.68
2023-04-28T06:15:57.564Z,221.98
2023-04-28T06:16:57.496Z,183.15
2023-04-28T06:17:57.983Z,198.21
2023-04-28T06:18:57.561Z,173.77
2023-04-28T06:19:57.599Z,172.14
2023-04-28T06:20:57.641Z,167.99
2023-04-28T06:21:57.672Z,168.90
2023-04-28T06:22:57.689Z,157.74
2023-04-28T06:23:57.719Z,158.27
2023-04-28T06:24:57.738Z,153.37
2023-04-28T06:25:57.759Z,150.42
2023-04-28T06:26:57.791Z,155.33
2023-04-28T06:27:57.820Z,152.06
2023-04-28T06:28:57.829Z,148.18
2023-04-28T06:29:57.862Z,145.27
2023-04-28T06:30:57.917Z,131.15
2023-04-28T06:31:57.977Z,130.27
2023-04-28T06:32:58.010Z,126.82
2023-04-28T06:33:57.912Z,129.30
2023-04-28T06:34:58.709Z,133.18
2023-04-28T06:35:57.959Z,140.41
2023-04-28T06:36:58.467Z,143.97
2023-04-28T06:37:58.010Z,146.93
2023-04-28T06:38:58.013Z,149.18
2023-04-28T06:39:58.015Z,149.51
2023-04-28T06:40:58.054Z,148.81
2023-04-28T06:41:58.052Z,132.57
2023-04-28T06:42:58.065Z,135.46
2023-04-28T06:43:58.073Z,141.93
2023-04-28T06:44:58.071Z,162.19
2023-04-28T06:45:58.284Z,149.37
2023-04-28T06:46:58.215Z,147.22
2023-04-28T06:47:58.464Z,149.50
2023-04-28T06:48:58.102Z,150.95
2023-04-28T06:49:58.142Z,152.03
2023-04-28T06:50:58.133Z,153.68
2023-04-28T06:51:58.133Z,153.78
2023-04-28T06:52:58.455Z,158.01
2023-04-28T06:53:58.129Z,158.75
2023-04-28T06:54:58.143Z,158.50
2023-04-28T06:55:58.128Z,155.74
2023-04-28T06:56:58.467Z,155.62
2023-04-28T06:57:58.484Z,158.32
2023-04-28T06:58:58.143Z,159.82
2023-04-28T06:59:58.155Z,159.86
2023-04-28T07:00:58.168Z,160.18
2023-04-28T07:01:58.200Z,160.88
2023-04-28T07:02:58.584Z,160.75
2023-04-28T07:03:58.250Z,165.79
2023-04-28T07:04:58.167Z,182.40
2023-04-28T07:05:58.166Z,181.62
2023-04-28T07:06:58.218Z,175.12
2023-04-28T07:07:58.468Z,166.74
2023-04-28T07:08:58.153Z,162.87
2023-04-28T07:09:58.163Z,162.17
2023-04-28T07:10:58.144Z,161.05
2023-04-28T07:11:58.143Z,160.48
2023-04-28T07:12:58.151Z,160.17
2023-04-28T07:13:58.133Z,160.03
2023-04-28T07:14:58.158Z,191.17
2023-04-28T07:15:58.185Z,213.73
2023-04-28T07:16:58.132Z,221.13
2023-04-28T07:17:58.535Z,219.53
2023-04-28T07:18:58.147Z,239.80
2023-04-28T07:19:58.101Z,243.75
2023-04-28T07:20:58.103Z,228.01
2023-04-28T07:21:58.115Z,204.88
2023-04-28T07:22:58.112Z,203.03
2023-04-28T07:23:58.100Z,184.86
2023-04-28T07:24:58.133Z,158.43
2023-04-28T07:25:58.094Z,141.39
2023-04-28T07:26:58.129Z,132.88
2023-04-28T07:27:58.147Z,126.48
2023-04-28T07:28:58.196Z,119.46
2023-04-28T07:29:58.291Z,119.33
2023-04-28T07:30:58.305Z,125.95
2023-04-28T07:31:58.298Z,131.16
2023-04-28T07:32:58.557Z,132.64
2023-04-28T07:33:58.279Z,135.07
2023-04-28T07:34:58.287Z,134.33
2023-04-28T07:35:58.263Z,135.82
2023-04-28T07:36:58.310Z,143.51
2023-04-28T07:37:58.372Z,146.73
2023-04-28T07:38:58.409Z,158.28
2023-04-28T07:39:58.465Z,169.21
2023-04-28T07:40:58.502Z,170.85
2023-04-28T07:41:59.004Z,173.69
2023-04-28T07:42:58.542Z,168.46
2023-04-28T07:43:58.533Z,166.70
2023-04-28T07:44:58.550Z,164.61
2023-04-28T07:45:58.567Z,163.86
2023-04-28T07:46:58.569Z,161.40
2023-04-28T07:47:58.589Z,159.82
2023-04-28T07:48:58.556Z,155.44
2023-04-28T07:49:58.567Z,156.68
2023-04-28T07:50:58.557Z,160.56
2023-04-28T07:51:58.995Z,159.62
2023-04-28T07:52:58.983Z,160.18
2023-04-28T07:53:58.565Z,156.85
2023-04-28T07:54:58.580Z,149.52
2023-04-28T07:55:58.583Z,155.79
2023-04-28T07:56:58.604Z,157.45
2023-04-28T07:57:58.630Z,159.71
2023-04-28T07:58:58.661Z,160.46
2023-04-28T07:59:58.689Z,160.22
2023-04-28T08:00:58.740Z,160.90
2023-04-28T08:01:59.093Z,158.93
2023-04-28T08:02:59.016Z,159.35
2023-04-28T08:03:59.229Z,157.28
2023-04-28T08:04:59.409Z,166.75
2023-04-28T08:05:59.093Z,198.10
2023-04-28T08:06:59.523Z,219.33
2023-04-28T08:07:59.506Z,225.48
2023-04-28T08:08:59.211Z,214.28
2023-04-28T08:09:59.286Z,207.74
2023-04-28T08:10:59.320Z,205.55
2023-04-28T08:11:59.384Z,200.52
2023-04-28T08:12:59.476Z,205.05
2023-04-28T08:13:59.491Z,204.78
2023-04-28T08:14:59.571Z,216.93
2023-04-28T08:15:59.627Z,195.61
2023-04-28T08:16:59.644Z,189.90
2023-04-28T08:18:00.159Z,190.91
2023-04-28T08:18:59.919Z,185.46
2023-04-28T08:19:59.811Z,182.17
2023-04-28T08:20:59.858Z,167.69
2023-04-28T08:21:59.912Z,151.90
2023-04-28T08:23:00.031Z,126.38
2023-04-28T08:23:59.961Z,111.81
2023-04-28T08:24:59.962Z,107.33
2023-04-28T08:25:59.958Z,103.63
2023-04-28T08:26:59.973Z,101.80
2023-04-28T08:28:00.015Z,100.23
2023-04-28T08:29:00.037Z,98.82
2023-04-28T08:30:00.066Z,96.67
2023-04-28T08:31:00.173Z,90.22
2023-04-28T08:32:00.178Z,85.74
2023-04-28T08:33:00.580Z,86.76
2023-04-28T08:34:00.206Z,81.78
2023-04-28T08:35:00.194Z,78.32
2023-04-28T08:36:00.213Z,76.51
2023-04-28T08:37:00.255Z,76.39
2023-04-28T08:38:00.536Z,77.54
2023-04-28T08:39:00.320Z,87.54
2023-04-28T08:40:00.347Z,99.79
2023-04-28T08:41:00.384Z,102.74
2023-04-28T08:42:00.409Z,112.58
2023-04-28T08:43:00.465Z,124.78
2023-04-28T08:44:00.464Z,134.39
2023-04-28T08:45:00.462Z,124.32
2023-04-28T08:46:00.482Z,125.21
2023-04-28T08:47:00.571Z,133.54
2023-04-28T08:48:00.665Z,140.20
2023-04-28T08:49:00.628Z,142.65
2023-04-28T08:50:00.642Z,139.72
2023-04-28T08:51:00.679Z,138.37
2023-04-28T08:52:00.681Z,140.84
2023-04-28T08:53:00.698Z,143.33
2023-04-28T08:55:00.704Z,150.48
2023-04-28T08:56:00.701Z,151.66
2023-04-28T08:57:00.680Z,153.72
2023-04-28T08:58:00.677Z,154.12
2023-04-28T08:59:00.683Z,153.56
2023-04-28T09:00:00.687Z,148.56
2023-04-28T09:01:00.666Z,149.89
2023-04-28T09:02:00.913Z,149.10
2023-04-28T09:03:00.785Z,157.94
2023-04-28T09:04:00.914Z,157.40
2023-04-28T09:05:00.838Z,165.89
2023-04-28T09:06:00.639Z,161.80
2023-04-28T09:07:00.610Z,161.68
2023-04-28T09:08:00.642Z,159.79
2023-04-28T09:09:00.609Z,159.60
2023-04-28T09:10:00.595Z,161.25
2023-04-28T09:11:00.598Z,161.36
2023-04-28T09:12:00.580Z,163.72
2023-04-28T09:13:01.063Z,164.75
2023-04-28T09:14:00.569Z,157.61
2023-04-28T09:15:00.586Z,157.40
2023-04-28T09:16:00.584Z,158.51
2023-04-28T09:17:00.563Z,150.90
2023-04-28T09:18:00.649Z,146.62
2023-04-28T09:19:00.535Z,149.53
2023-04-28T09:20:00.555Z,156.04
2023-04-28T09:21:01.965Z,155.33
2023-04-28T09:22:03.696Z,157.85
2023-04-28T09:23:01.524Z,155.70
2023-04-28T09:24:00.529Z,156.67
2023-04-28T09:25:00.509Z,154.85
2023-04-28T09:26:00.527Z,153.60
2023-04-28T09:27:00.489Z,145.60
2023-04-28T09:28:00.497Z,146.43
2023-04-28T09:29:00.544Z,118.43
2023-04-28T09:30:00.472Z,102.34
2023-04-28T09:31:00.464Z,93.56
2023-04-28T09:32:00.490Z,91.70
2023-04-28T09:33:00.562Z,76.54
2023-04-28T09:34:00.462Z,73.93
2023-04-28T09:35:00.443Z,70.62
2023-04-28T09:36:00.446Z,67.71
2023-04-28T09:37:00.485Z,65.27
2023-04-28T09:38:00.614Z,61.45
2023-04-28T09:39:01.022Z,60.16
2023-04-28T09:40:00.643Z,58.90
2023-04-28T09:41:00.711Z,57.95
2023-04-28T09:42:00.734Z,58.92
2023-04-28T09:43:06.261Z,60.71
2023-04-28T09:44:01.797Z,60.80
2023-04-28T09:45:00.789Z,60.73
2023-04-28T09:46:00.847Z,59.93
2023-04-28T09:47:00.757Z,61.24
2023-04-28T09:48:01.137Z,61.79
2023-04-28T09:49:00.765Z,60.80
2023-04-28T09:50:00.768Z,62.81
2023-04-28T09:51:00.738Z,63.51
2023-04-28T09:52:00.747Z,63.02
2023-04-28T09:53:00.737Z,62.75
2023-04-28T09:54:00.720Z,66.52
2023-04-28T09:55:00.708Z,65.20
2023-04-28T09:56:00.708Z,66.06
2023-04-28T09:57:00.716Z,65.69
2023-04-28T09:58:00.696Z,67.12
2023-04-28T09:59:01.055Z,65.97
2023-04-28T10:00:00.686Z,65.34
2023-04-28T10:01:00.832Z,65.81
2023-04-28T10:02:04.665Z,66.13
2023-04-28T10:03:01.792Z,66.11
2023-04-28T10:04:00.852Z,66.38
2023-04-28T10:05:00.851Z,66.56
2023-04-28T10:06:00.634Z,67.24
2023-04-28T10:07:00.623Z,68.65
2023-04-28T10:08:00.628Z,67.36
2023-04-28T10:09:00.941Z,67.73
2023-04-28T10:10:00.622Z,69.07
2023-04-28T10:11:00.597Z,67.27
2023-04-28T10:12:00.589Z,69.02
2023-04-28T10:13:00.589Z,67.96
2023-04-28T10:14:00.653Z,69.35
2023-04-28T10:15:00.577Z,70.48
2023-04-28T10:16:00.603Z,70.24
2023-04-28T10:17:00.569Z,70.98
2023-04-28T10:18:00.581Z,72.47
2023-04-28T10:19:00.552Z,75.22
2023-04-28T10:20:00.578Z,74.35
2023-04-28T10:21:00.552Z,75.25
2023-04-28T10:22:00.562Z,74.21
2023-04-28T10:23:00.562Z,82.30
2023-04-28T10:24:01.086Z,86.75
2023-04-28T10:25:00.657Z,96.37
2023-04-28T10:26:00.725Z,96.43
2023-04-28T10:27:00.752Z,100.21
2023-04-28T10:28:00.771Z,103.17
2023-04-28T10:29:00.806Z,106.28
2023-04-28T10:30:00.841Z,107.34
2023-04-28T10:31:00.878Z,109.32
2023-04-28T10:32:00.855Z,109.45
2023-04-28T10:33:00.908Z,109.80
2023-04-28T10:34:00.870Z,106.64
2023-04-28T10:35:00.893Z,104.30
2023-04-28T10:36:00.963Z,107.39
2023-04-28T10:37:00.996Z,110.76
2023-04-28T10:38:01.151Z,109.82
2023-04-28T10:39:01.107Z,116.98
2023-04-28T10:40:01.152Z,116.90
2023-04-28T10:41:01.190Z,123.93
2023-04-28T10:42:01.223Z,117.94
2023-04-28T10:43:01.251Z,118.42
2023-04-28T10:44:01.263Z,120.69
2023-04-28T10:45:01.288Z,125.70
2023-04-28T10:46:01.467Z,128.65
2023-04-28T10:47:01.417Z,127.48
2023-04-28T10:48:01.338Z,129.78
2023-04-28T10:49:01.314Z,133.95
2023-04-28T10:50:01.363Z,134.84
2023-04-28T10:51:01.304Z,133.93
2023-04-28T10:52:01.297Z,134.23
2023-04-28T10:53:01.318Z,136.01
2023-04-28T10:54:01.344Z,135.30
2023-04-28T10:55:06.995Z,136.61
2023-04-28T10:56:02.395Z,136.67
2023-04-28T10:57:01.357Z,136.76
2023-04-28T10:58:01.363Z,136.88
2023-04-28T10:59:01.345Z,137.03
2023-04-28T11:00:01.340Z,137.28
2023-04-28T11:01:01.342Z,137.17
2023-04-28T11:02:01.399Z,137.75
2023-04-28T11:03:01.408Z,137.45
2023-04-28T11:04:01.615Z,137.93
2023-04-28T11:05:01.554Z,137.97
2023-04-28T11:06:01.487Z,143.25
2023-04-28T11:07:01.525Z,153.35
2023-04-28T11:08:01.585Z,160.53
2023-04-28T11:09:02.108Z,153.76
2023-04-28T11:10:01.759Z,156.12
2023-04-28T11:11:01.766Z,155.33
2023-04-28T11:12:01.805Z,167.20
2023-04-28T11:13:01.866Z,179.01
2023-04-28T11:14:02.064Z,171.60
2023-04-28T11:15:02.043Z,177.58
2023-04-28T11:16:02.070Z,177.51
2023-04-28T11:17:02.135Z,168.61
2023-04-28T11:18:02.214Z,163.96
2023-04-28T11:19:02.569Z,164.28
2023-04-28T11:20:02.316Z,165.03
2023-04-28T11:21:02.361Z,166.20
2023-04-28T11:22:02.438Z,167.45
2023-04-28T11:23:02.496Z,166.08
2023-04-28T11:24:02.581Z,166.57
2023-04-28T11:25:02.670Z,167.74
2023-04-28T11:26:02.650Z,169.55
2023-04-28T11:27:02.711Z,168.99
2023-04-28T11:28:02.748Z,168.71
2023-04-28T11:29:02.783Z,169.70
2023-04-28T11:30:02.822Z,170.64
2023-04-28T11:31:02.857Z,170.39
2023-04-28T11:32:02.993Z,170.12
2023-04-28T11:33:02.971Z,171.09
2023-04-28T11:34:02.978Z,171.25
2023-04-28T11:35:03.012Z,172.16
2023-04-28T11:36:03.050Z,172.28
2023-04-28T11:37:03.065Z,172.12
2023-04-28T11:38:03.077Z,172.32
2023-04-28T11:39:03.127Z,172.38
2023-04-28T11:40:03.160Z,171.37
2023-04-28T11:41:03.162Z,171.86
2023-04-28T11:42:03.245Z,171.12
2023-04-28T11:43:03.216Z,171.23
2023-04-28T11:44:03.237Z,139.10
2023-04-28T11:45:03.290Z,96.87
2023-04-28T11:46:03.332Z,85.77
2023-04-28T11:47:03.842Z,80.12
2023-04-28T11:48:03.406Z,91.14
2023-04-28T11:49:03.405Z,96.91
2023-04-28T11:50:03.567Z,103.54
2023-04-28T11:51:03.460Z,105.66
2023-04-28T11:52:03.498Z,107.83
2023-04-28T11:53:03.552Z,112.97
2023-04-28T11:54:03.582Z,117.56
2023-04-28T11:55:03.591Z,117.88
2023-04-28T11:56:03.606Z,120.59
2023-04-28T11:57:03.668Z,119.36
2023-04-28T11:58:03.596Z,128.84
2023-04-28T11:59:04.068Z,130.04
2023-04-28T12:00:03.619Z,139.14
2023-04-28T12:01:03.633Z,147.60
2023-04-28T12:02:03.724Z,150.43
2023-04-28T12:03:03.824Z,151.18
2023-04-28T12:04:03.959Z,141.68
2023-04-28T12:05:03.867Z,139.28
2023-04-28T12:06:03.968Z,142.80
2023-04-28T12:07:03.973Z,139.01
2023-04-28T12:08:04.046Z,148.72
2023-04-28T12:09:04.096Z,150.06
2023-04-28T12:10:04.121Z,148.29
2023-04-28T12:11:04.151Z,151.43
2023-04-28T12:12:04.198Z,153.51
2023-04-28T12:13:04.226Z,155.91
2023-04-28T12:14:04.257Z,156.19
2023-04-28T12:15:04.305Z,154.66
2023-04-28T12:16:04.419Z,157.69
2023-04-28T12:17:04.354Z,156.17
2023-04-28T12:18:04.416Z,157.27
2023-04-28T12:19:04.402Z,157.64
2023-04-28T12:20:04.437Z,157.31
2023-04-28T12:21:04.423Z,154.69
2023-04-28T12:22:04.472Z,156.12
2023-04-28T12:23:04.458Z,157.52
2023-04-28T12:24:04.488Z,152.33
2023-04-28T12:25:04.500Z,156.62
2023-04-28T12:26:04.513Z,157.88
2023-04-28T12:27:04.513Z,158.68
2023-04-28T12:28:04.641Z,158.91
2023-04-28T12:29:04.567Z,159.59
2023-04-28T12:30:04.533Z,159.20
2023-04-28T12:31:04.633Z,159.17
2023-04-28T12:32:04.557Z,158.97